Airport View

Enter AWOS ICAO identifier for current METAR.

ex. KFNL

KRNT 192053Z VRB05KT 5SM BKN042 22/13 A3001 RMK AO2 SLP168 T02220128 53001

19 Aug 2019 21:18

Phone: 425-255-6080

Other Area AWOS: KBFI - KSEA - KTIW - KPWT

TAF KBFI 191732Z 1918/2018 VRB03KT P6SM SCT025 BKN035 FM191900 VRB03KT P6SM SCT030 BKN040 FM192100 VRB03KT P6SM SCT050 FM192300 32006KT P6SM SKC FM200500 VRB03KT P6SM SCT250